Time,TemperatureF,DewpointF,PressureIn,WindDirection,WindDirectionDegrees,WindSpeedMPH,WindSpeedGustMPH,Humidity,HourlyPrecipIn,Conditions,Clouds,dailyrainin,SolarRadiationWatts/m^2,SoftwareType,DateUTC
2013-09-06 00:01:00,69.0,51.0,-100.00,North,349,0.0,0.0,52,0.00,,,0.00,0.000000,,2013-09-06 07:01:00,
2013-09-06 00:23:00,68.0,50.0,-100.00,NNW,341,0.0,0.0,52,0.00,,,0.00,0.000000,,2013-09-06 07:23:00,
2013-09-06 00:32:00,68.0,50.0,-100.00,NNW,341,0.0,0.0,52,0.00,,,0.00,0.000000,,2013-09-06 07:32:00,
2013-09-06 00:42:00,68.0,50.0,-100.00,NNW,341,0.0,0.0,52,0.00,,,0.00,0.000000,,2013-09-06 07:42:00,
2013-09-06 00:52:00,68.0,50.0,-100.00,NNW,341,0.0,0.0,52,0.00,,,0.00,0.000000,,2013-09-06 07:52:00,
2013-09-06 01:02:00,68.0,50.0,-100.00,NNW,341,0.0,0.0,52,0.00,,,0.00,0.000000,,2013-09-06 08:02:00,
2013-09-06 01:22:00,66.0,48.0,-100.00,SE,134,0.0,0.0,53,0.00,,,0.00,0.000000,,2013-09-06 08:22:00,
2013-09-06 01:32:00,66.0,48.0,-100.00,SE,134,0.0,0.0,53,0.00,,,0.00,0.000000,,2013-09-06 08:32:00,
2013-09-06 01:42:00,66.0,48.0,-100.00,SE,134,0.0,0.0,53,0.00,,,0.00,0.000000,,2013-09-06 08:42:00,
2013-09-06 01:52:00,66.0,48.0,-100.00,SE,134,0.0,0.0,53,0.00,,,0.00,0.000000,,2013-09-06 08:52:00,
2013-09-06 02:01:00,66.0,48.0,-100.00,SE,134,0.0,0.0,53,0.00,,,0.00,0.000000,,2013-09-06 09:01:00,
2013-09-06 02:03:00,67.0,49.0,-100.00,NNW,341,0.0,0.0,53,0.00,,,0.00,0.000000,,2013-09-06 09:03:00,
2013-09-06 02:43:00,67.0,49.0,-100.00,NNW,341,0.0,0.0,53,0.00,,,0.00,0.000000,,2013-09-06 09:43:00,
2013-09-06 02:53:00,67.0,49.0,-100.00,NNW,341,0.0,0.0,53,0.00,,,0.00,0.000000,,2013-09-06 09:53:00,
2013-09-06 03:43:00,65.0,47.0,-100.00,NNW,342,0.0,0.0,53,0.00,,,0.00,0.000000,,2013-09-06 10:43:00,
2013-09-06 03:53:00,65.0,47.0,-100.00,NNW,342,0.0,0.0,53,0.00,,,0.00,0.000000,,2013-09-06 10:53:00,
2013-09-06 04:02:00,65.0,47.0,-100.00,NNW,342,0.0,0.0,53,0.00,,,0.00,0.000000,,2013-09-06 11:02:00,
2013-09-06 04:22:00,66.0,49.0,-100.00,NNW,338,0.0,0.0,54,0.00,,,0.00,0.000000,,2013-09-06 11:22:00,
2013-09-06 04:33:00,66.0,49.0,-100.00,NNW,338,0.0,0.0,54,0.00,,,0.00,0.000000,,2013-09-06 11:33:00,
2013-09-06 04:42:00,66.0,49.0,-100.00,NNW,338,0.0,0.0,54,0.00,,,0.00,0.000000,,2013-09-06 11:42:00,
2013-09-06 04:52:00,66.0,49.0,-100.00,NNW,338,0.0,0.0,54,0.00,,,0.00,0.000000,,2013-09-06 11:52:00,
2013-09-06 05:02:00,66.0,49.0,-100.00,NNW,338,0.0,0.0,54,0.00,,,0.00,0.000000,,2013-09-06 12:02:00,
2013-09-06 05:22:00,64.0,47.0,-100.00,NNW,340,0.0,0.0,54,0.00,,,0.00,0.000000,,2013-09-06 12:22:00,
2013-09-06 05:32:00,64.0,47.0,-100.00,NNW,340,0.0,0.0,54,0.00,,,0.00,0.000000,,2013-09-06 12:32:00,
2013-09-06 05:42:00,64.0,47.0,-100.00,NNW,340,0.0,0.0,54,0.00,,,0.00,0.000000,,2013-09-06 12:42:00,
2013-09-06 05:52:00,64.0,47.0,-100.00,NNW,340,0.0,0.0,54,0.00,,,0.00,0.000000,,2013-09-06 12:52:00,
2013-09-06 06:02:00,64.0,47.0,-100.00,NNW,340,0.0,0.0,54,0.00,,,0.00,0.000000,,2013-09-06 13:02:00,
2013-09-06 06:42:00,65.0,48.0,-100.00,NNW,339,0.0,0.0,54,0.00,,,0.00,0.000000,,2013-09-06 13:42:00,
2013-09-06 06:52:00,65.0,48.0,-100.00,NNW,339,0.0,0.0,54,0.00,,,0.00,0.000000,,2013-09-06 13:52:00,
2013-09-06 07:02:00,65.0,48.0,-100.00,NNW,339,0.0,0.0,54,0.00,,,0.00,0.000000,,2013-09-06 14:02:00,
2013-09-06 07:42:00,65.0,48.0,-100.00,NNW,342,0.0,0.0,55,0.00,,,0.00,16.000000,,2013-09-06 14:42:00,
2013-09-06 07:52:00,65.0,48.0,-100.00,NNW,342,0.0,0.0,55,0.00,,,0.00,16.000000,,2013-09-06 14:52:00,
2013-09-06 08:01:00,65.0,48.0,-100.00,NNW,342,0.0,0.0,55,0.00,,,0.00,16.000000,,2013-09-06 15:01:00,
2013-09-06 08:03:00,67.0,49.0,-100.00,North,349,0.0,0.0,52,0.00,,,0.00,41.000000,,2013-09-06 15:03:00,
2013-09-06 08:22:00,67.0,49.0,-100.00,North,349,0.0,0.0,52,0.00,,,0.00,41.000000,,2013-09-06 15:22:00,
2013-09-06 08:34:00,67.0,49.0,-100.00,North,349,0.0,0.0,52,0.00,,,0.00,41.000000,,2013-09-06 15:34:00,
2013-09-06 08:43:00,67.0,49.0,-100.00,North,349,0.0,0.0,52,0.00,,,0.00,41.000000,,2013-09-06 15:43:00,
2013-09-06 08:53:00,67.0,49.0,-100.00,North,349,0.0,0.0,52,0.00,,,0.00,41.000000,,2013-09-06 15:53:00,
2013-09-06 09:03:00,77.0,53.0,-100.00,North,1,0.0,0.0,44,0.00,,,0.00,323.000000,,2013-09-06 16:03:00,
2013-09-06 09:43:00,77.0,53.0,-100.00,North,1,0.0,0.0,44,0.00,,,0.00,323.000000,,2013-09-06 16:43:00,
2013-09-06 09:53:00,77.0,53.0,-100.00,North,1,0.0,0.0,44,0.00,,,0.00,323.000000,,2013-09-06 16:53:00,
2013-09-06 10:24:00,88.0,54.0,-100.00,North,357,0.0,0.0,32,0.00,,,0.00,623.000000,,2013-09-06 17:24:00,
2013-09-06 10:34:00,88.0,54.0,-100.00,North,357,0.0,0.0,32,0.00,,,0.00,623.000000,,2013-09-06 17:34:00,
2013-09-06 10:43:00,88.0,54.0,-100.00,North,357,0.0,0.0,32,0.00,,,0.00,623.000000,,2013-09-06 17:43:00,
2013-09-06 10:53:00,88.0,54.0,-100.00,North,357,0.0,0.0,32,0.00,,,0.00,623.000000,,2013-09-06 17:53:00,
2013-09-06 11:01:00,88.0,54.0,-100.00,North,357,0.0,0.0,32,0.00,,,0.00,623.000000,,2013-09-06 18:01:00,
2013-09-06 11:42:00,90.0,51.0,-100.00,SE,144,0.0,0.0,27,0.00,,,0.00,765.000000,,2013-09-06 18:42:00,
2013-09-06 11:52:00,90.0,51.0,-100.00,SE,144,0.0,0.0,27,0.00,,,0.00,765.000000,,2013-09-06 18:52:00,
2013-09-06 12:02:00,90.0,51.0,-100.00,SE,144,0.0,0.0,27,0.00,,,0.00,765.000000,,2013-09-06 19:02:00,
2013-09-06 12:43:00,94.0,53.0,-100.00,ENE,57,0.0,0.0,25,0.00,,,0.00,865.000000,,2013-09-06 19:43:00,
2013-09-06 12:52:00,94.0,53.0,-100.00,ENE,57,0.0,0.0,25,0.00,,,0.00,865.000000,,2013-09-06 19:52:00,
2013-09-06 13:02:00,94.0,53.0,-100.00,ENE,57,0.0,0.0,25,0.00,,,0.00,865.000000,,2013-09-06 20:02:00,
2013-09-06 13:23:00,90.0,51.0,-100.00,NE,56,0.0,0.0,27,0.00,,,0.00,697.000000,,2013-09-06 20:23:00,
2013-09-06 13:32:00,90.0,51.0,-100.00,NE,56,0.0,0.0,27,0.00,,,0.00,697.000000,,2013-09-06 20:32:00,
2013-09-06 13:42:00,90.0,51.0,-100.00,NE,56,0.0,0.0,27,0.00,,,0.00,697.000000,,2013-09-06 20:42:00,
2013-09-06 13:52:00,90.0,51.0,-100.00,NE,56,0.0,0.0,27,0.00,,,0.00,697.000000,,2013-09-06 20:52:00,
2013-09-06 14:01:00,90.0,51.0,-100.00,NE,56,0.0,0.0,27,0.00,,,0.00,697.000000,,2013-09-06 21:01:00,
2013-09-06 14:03:00,89.0,54.0,-100.00,South,178,0.0,0.0,30,0.00,,,0.00,334.000000,,2013-09-06 21:03:00,
2013-09-06 14:43:00,89.0,54.0,-100.00,South,178,0.0,0.0,30,0.00,,,0.00,334.000000,,2013-09-06 21:43:00,
2013-09-06 14:54:00,89.0,54.0,-100.00,South,178,0.0,0.0,30,0.00,,,0.00,334.000000,,2013-09-06 21:54:00,
2013-09-06 15:03:00,89.0,52.0,-100.00,NE,49,0.0,0.0,28,0.00,,,0.00,440.000000,,2013-09-06 22:03:00,
2013-09-06 15:44:00,89.0,52.0,-100.00,NE,49,0.0,0.0,28,0.00,,,0.00,440.000000,,2013-09-06 22:44:00,
2013-09-06 15:53:00,89.0,52.0,-100.00,NE,49,0.0,0.0,28,0.00,,,0.00,440.000000,,2013-09-06 22:53:00,
2013-09-06 16:43:00,89.0,56.0,-100.00,SW,220,0.0,0.0,33,0.00,,,0.00,313.000000,,2013-09-06 23:43:00,
2013-09-06 16:52:00,89.0,56.0,-100.00,SW,220,0.0,0.0,33,0.00,,,0.00,313.000000,,2013-09-06 23:52:00,
2013-09-06 17:01:00,89.0,56.0,-100.00,SW,220,0.0,0.0,33,0.00,,,0.00,313.000000,,2013-09-07 00:01:00,
2013-09-06 17:22:00,84.0,58.0,-100.00,WSW,255,0.0,0.0,41,0.00,,,0.00,231.000000,,2013-09-07 00:22:00,
2013-09-06 17:32:00,84.0,58.0,-100.00,WSW,255,0.0,0.0,41,0.00,,,0.00,231.000000,,2013-09-07 00:32:00,
2013-09-06 17:42:00,84.0,58.0,-100.00,WSW,255,0.0,0.0,41,0.00,,,0.00,231.000000,,2013-09-07 00:42:00,
2013-09-06 17:52:00,84.0,58.0,-100.00,WSW,255,0.0,0.0,41,0.00,,,0.00,231.000000,,2013-09-07 00:52:00,
2013-09-06 18:02:00,84.0,58.0,-100.00,WSW,255,0.0,0.0,41,0.00,,,0.00,231.000000,,2013-09-07 01:02:00,
2013-09-06 19:52:00,70.0,53.0,-100.00,WSW,239,0.0,0.0,55,-99.99,,,0.00,16.000000,,2013-09-07 02:52:00,
2013-09-06 20:02:00,70.0,53.0,-100.00,WSW,239,0.0,0.0,55,-99.99,,,0.00,16.000000,,2013-09-07 03:02:00,
2013-09-06 20:03:00,70.0,53.0,-100.00,NNW,345,0.0,0.0,54,0.00,,,0.00,0.000000,,2013-09-07 03:03:00,
2013-09-06 20:23:00,70.0,53.0,-100.00,NNW,345,0.0,0.0,54,0.00,,,0.00,0.000000,,2013-09-07 03:23:00,
2013-09-06 20:34:00,70.0,53.0,-100.00,NNW,345,0.0,0.0,54,0.00,,,0.00,0.000000,,2013-09-07 03:34:00,
2013-09-06 20:45:00,70.0,53.0,-100.00,NNW,345,0.0,0.0,54,0.00,,,0.00,0.000000,,2013-09-07 03:45:00,
2013-09-06 20:55:00,70.0,53.0,-100.00,NNW,345,0.0,0.0,54,0.00,,,0.00,0.000000,,2013-09-07 03:55:00,
2013-09-06 21:03:00,68.0,53.0,-100.00,West,280,0.0,0.0,58,0.00,,,0.00,0.000000,,2013-09-07 04:03:00,
2013-09-06 21:24:00,68.0,53.0,-100.00,West,280,0.0,0.0,58,0.00,,,0.00,0.000000,,2013-09-07 04:24:00,
2013-09-06 21:34:00,68.0,53.0,-100.00,West,280,0.0,0.0,58,0.00,,,0.00,0.000000,,2013-09-07 04:34:00,
2013-09-06 21:43:00,68.0,53.0,-100.00,West,280,0.0,0.0,58,0.00,,,0.00,0.000000,,2013-09-07 04:43:00,
2013-09-06 21:54:00,68.0,53.0,-100.00,West,280,0.0,0.0,58,0.00,,,0.00,0.000000,,2013-09-07 04:54:00,
2013-09-06 22:23:00,66.0,53.0,-100.00,NE,48,0.0,0.0,64,0.00,,,-99.99,0.000000,,2013-09-07 05:23:00,
2013-09-06 22:33:00,66.0,53.0,-100.00,NE,48,0.0,0.0,64,0.00,,,-99.99,0.000000,,2013-09-07 05:33:00,
2013-09-06 22:42:00,66.0,53.0,-100.00,NE,48,0.0,0.0,64,0.00,,,-99.99,0.000000,,2013-09-07 05:42:00,
2013-09-06 22:52:00,66.0,53.0,-100.00,NE,48,0.0,0.0,64,0.00,,,-99.99,0.000000,,2013-09-07 05:52:00,
2013-09-06 23:02:00,66.0,53.0,-100.00,NE,48,0.0,0.0,64,0.00,,,-99.99,0.000000,,2013-09-07 06:02:00,
2013-09-06 23:22:00,66.0,50.0,-100.00,North,355,0.0,0.0,57,0.00,,,0.00,0.000000,,2013-09-07 06:22:00,
2013-09-06 23:33:00,66.0,50.0,-100.00,North,355,0.0,0.0,57,0.00,,,0.00,0.000000,,2013-09-07 06:33:00,
2013-09-06 23:43:00,66.0,50.0,-100.00,North,355,0.0,0.0,57,0.00,,,0.00,0.000000,,2013-09-07 06:43:00,
2013-09-06 23:52:00,66.0,50.0,-100.00,North,355,0.0,0.0,57,0.00,,,0.00,0.000000,,2013-09-07 06:52:00,